sensor_id;sensor_type;location;lat;lon;timestamp;P1;durP1;ratioP1;P2;durP2;ratioP2
29370;SDS011;16357;52.188;7.838;2023-04-06T00:01:50;9.45;;;5.47;;
29370;SDS011;16357;52.188;7.838;2023-04-06T00:04:17;9.75;;;5.50;;
29370;SDS011;16357;52.188;7.838;2023-04-06T00:06:43;9.52;;;5.18;;
29370;SDS011;16357;52.188;7.838;2023-04-06T00:09:10;7.90;;;5.40;;
29370;SDS011;16357;52.188;7.838;2023-04-06T00:11:36;8.93;;;5.22;;
29370;SDS011;16357;52.188;7.838;2023-04-06T00:14:02;8.15;;;5.30;;
29370;SDS011;16357;52.188;7.838;2023-04-06T00:16:29;6.32;;;4.65;;
29370;SDS011;16357;52.188;7.838;2023-04-06T00:18:56;10.18;;;5.40;;
29370;SDS011;16357;52.188;7.838;2023-04-06T00:21:22;8.32;;;5.78;;
29370;SDS011;16357;52.188;7.838;2023-04-06T00:23:49;7.78;;;5.82;;
29370;SDS011;16357;52.188;7.838;2023-04-06T00:26:16;9.98;;;5.80;;
29370;SDS011;16357;52.188;7.838;2023-04-06T00:28:42;8.20;;;5.85;;
29370;SDS011;16357;52.188;7.838;2023-04-06T00:31:08;9.85;;;5.93;;
29370;SDS011;16357;52.188;7.838;2023-04-06T00:33:35;8.00;;;5.50;;
29370;SDS011;16357;52.188;7.838;2023-04-06T00:36:02;9.25;;;6.07;;
29370;SDS011;16357;52.188;7.838;2023-04-06T00:38:28;9.15;;;6.32;;
29370;SDS011;16357;52.188;7.838;2023-04-06T00:40:54;8.20;;;5.47;;
29370;SDS011;16357;52.188;7.838;2023-04-06T00:43:21;10.77;;;6.35;;
29370;SDS011;16357;52.188;7.838;2023-04-06T00:45:47;8.68;;;5.22;;
29370;SDS011;16357;52.188;7.838;2023-04-06T00:48:14;9.48;;;5.63;;
29370;SDS011;16357;52.188;7.838;2023-04-06T00:50:41;7.93;;;5.28;;
29370;SDS011;16357;52.188;7.838;2023-04-06T00:53:08;8.73;;;5.18;;
29370;SDS011;16357;52.188;7.838;2023-04-06T00:55:34;8.73;;;6.07;;
29370;SDS011;16357;52.188;7.838;2023-04-06T00:58:02;7.93;;;5.05;;
29370;SDS011;16357;52.188;7.838;2023-04-06T01:00:28;8.45;;;5.43;;
29370;SDS011;16357;52.188;7.838;2023-04-06T01:02:55;8.95;;;5.40;;
29370;SDS011;16357;52.188;7.838;2023-04-06T01:05:21;7.03;;;5.28;;
29370;SDS011;16357;52.188;7.838;2023-04-06T01:07:48;8.43;;;5.35;;
29370;SDS011;16357;52.188;7.838;2023-04-06T01:10:27;8.32;;;5.32;;
29370;SDS011;16357;52.188;7.838;2023-04-06T01:12:54;7.93;;;5.15;;
29370;SDS011;16357;52.188;7.838;2023-04-06T01:15:21;8.40;;;4.95;;
29370;SDS011;16357;52.188;7.838;2023-04-06T01:17:47;7.35;;;5.22;;
29370;SDS011;16357;52.188;7.838;2023-04-06T01:20:14;7.20;;;5.28;;
29370;SDS011;16357;52.188;7.838;2023-04-06T01:22:41;6.50;;;5.00;;
29370;SDS011;16357;52.188;7.838;2023-04-06T01:25:07;7.80;;;5.35;;
29370;SDS011;16357;52.188;7.838;2023-04-06T01:27:34;7.45;;;5.10;;
29370;SDS011;16357;52.188;7.838;2023-04-06T01:30:01;7.30;;;5.00;;
29370;SDS011;16357;52.188;7.838;2023-04-06T01:32:28;10.48;;;4.95;;
29370;SDS011;16357;52.188;7.838;2023-04-06T01:34:54;6.53;;;4.80;;
29370;SDS011;16357;52.188;7.838;2023-04-06T01:37:21;5.53;;;4.78;;
29370;SDS011;16357;52.188;7.838;2023-04-06T01:39:47;7.95;;;4.97;;
29370;SDS011;16357;52.188;7.838;2023-04-06T01:42:14;7.45;;;5.05;;
29370;SDS011;16357;52.188;7.838;2023-04-06T01:44:40;7.68;;;5.13;;
29370;SDS011;16357;52.188;7.838;2023-04-06T01:47:07;7.47;;;4.93;;
29370;SDS011;16357;52.188;7.838;2023-04-06T01:49:33;7.05;;;4.80;;
29370;SDS011;16357;52.188;7.838;2023-04-06T01:52:00;7.68;;;5.65;;
29370;SDS011;16357;52.188;7.838;2023-04-06T01:54:26;9.68;;;5.45;;
29370;SDS011;16357;52.188;7.838;2023-04-06T01:56:53;7.32;;;5.35;;
29370;SDS011;16357;52.188;7.838;2023-04-06T01:59:19;8.35;;;5.15;;
29370;SDS011;16357;52.188;7.838;2023-04-06T02:01:46;7.40;;;5.30;;
29370;SDS011;16357;52.188;7.838;2023-04-06T02:04:12;6.70;;;4.82;;
29370;SDS011;16357;52.188;7.838;2023-04-06T02:06:40;7.30;;;5.22;;
29370;SDS011;16357;52.188;7.838;2023-04-06T02:09:06;9.00;;;5.30;;
29370;SDS011;16357;52.188;7.838;2023-04-06T02:11:33;6.93;;;4.93;;
29370;SDS011;16357;52.188;7.838;2023-04-06T02:13:59;9.85;;;5.32;;
29370;SDS011;16357;52.188;7.838;2023-04-06T02:16:27;9.63;;;5.22;;
29370;SDS011;16357;52.188;7.838;2023-04-06T02:18:53;9.23;;;5.57;;
29370;SDS011;16357;52.188;7.838;2023-04-06T02:21:20;7.32;;;5.22;;
29370;SDS011;16357;52.188;7.838;2023-04-06T02:23:46;8.80;;;5.68;;
29370;SDS011;16357;52.188;7.838;2023-04-06T02:26:13;9.32;;;5.07;;
29370;SDS011;16357;52.188;7.838;2023-04-06T02:28:40;7.30;;;5.60;;
29370;SDS011;16357;52.188;7.838;2023-04-06T02:31:07;6.95;;;5.47;;
29370;SDS011;16357;52.188;7.838;2023-04-06T02:33:34;10.27;;;5.80;;
29370;SDS011;16357;52.188;7.838;2023-04-06T02:36:00;7.47;;;5.38;;
29370;SDS011;16357;52.188;7.838;2023-04-06T02:38:27;7.95;;;5.43;;
29370;SDS011;16357;52.188;7.838;2023-04-06T02:40:53;7.53;;;5.45;;
29370;SDS011;16357;52.188;7.838;2023-04-06T02:43:20;8.20;;;5.90;;
29370;SDS011;16357;52.188;7.838;2023-04-06T02:45:46;10.05;;;5.60;;
29370;SDS011;16357;52.188;7.838;2023-04-06T02:48:13;9.02;;;5.70;;
29370;SDS011;16357;52.188;7.838;2023-04-06T02:50:39;7.50;;;5.45;;
29370;SDS011;16357;52.188;7.838;2023-04-06T02:53:06;9.13;;;5.75;;
29370;SDS011;16357;52.188;7.838;2023-04-06T02:55:32;7.07;;;5.38;;
29370;SDS011;16357;52.188;7.838;2023-04-06T02:57:59;8.10;;;5.40;;
29370;SDS011;16357;52.188;7.838;2023-04-06T03:00:25;7.68;;;5.18;;
29370;SDS011;16357;52.188;7.838;2023-04-06T03:02:52;9.05;;;5.93;;
29370;SDS011;16357;52.188;7.838;2023-04-06T03:05:19;7.97;;;6.05;;
29370;SDS011;16357;52.188;7.838;2023-04-06T03:07:45;8.50;;;5.72;;
29370;SDS011;16357;52.188;7.838;2023-04-06T03:10:12;11.80;;;6.35;;
29370;SDS011;16357;52.188;7.838;2023-04-06T03:12:38;7.97;;;5.93;;
29370;SDS011;16357;52.188;7.838;2023-04-06T03:15:05;9.00;;;5.93;;
29370;SDS011;16357;52.188;7.838;2023-04-06T03:17:31;10.02;;;6.53;;
29370;SDS011;16357;52.188;7.838;2023-04-06T03:19:58;8.65;;;6.00;;
29370;SDS011;16357;52.188;7.838;2023-04-06T03:22:24;8.60;;;5.88;;
29370;SDS011;16357;52.188;7.838;2023-04-06T03:24:51;8.20;;;5.85;;
29370;SDS011;16357;52.188;7.838;2023-04-06T03:27:17;8.93;;;6.10;;
29370;SDS011;16357;52.188;7.838;2023-04-06T03:29:44;7.35;;;5.28;;
29370;SDS011;16357;52.188;7.838;2023-04-06T03:32:10;13.57;;;6.78;;
29370;SDS011;16357;52.188;7.838;2023-04-06T03:34:37;9.90;;;6.13;;
29370;SDS011;16357;52.188;7.838;2023-04-06T03:37:04;9.23;;;5.95;;
29370;SDS011;16357;52.188;7.838;2023-04-06T03:39:36;8.40;;;5.90;;
29370;SDS011;16357;52.188;7.838;2023-04-06T03:42:02;11.35;;;6.85;;
29370;SDS011;16357;52.188;7.838;2023-04-06T03:44:29;9.75;;;6.15;;
29370;SDS011;16357;52.188;7.838;2023-04-06T03:46:55;10.40;;;6.65;;
29370;SDS011;16357;52.188;7.838;2023-04-06T03:49:22;11.55;;;6.72;;
29370;SDS011;16357;52.188;7.838;2023-04-06T03:51:48;11.05;;;6.93;;
29370;SDS011;16357;52.188;7.838;2023-04-06T03:54:15;10.95;;;7.10;;
29370;SDS011;16357;52.188;7.838;2023-04-06T03:56:41;10.57;;;7.50;;
29370;SDS011;16357;52.188;7.838;2023-04-06T03:59:08;12.75;;;7.50;;
29370;SDS011;16357;52.188;7.838;2023-04-06T04:01:34;12.30;;;7.97;;
29370;SDS011;16357;52.188;7.838;2023-04-06T04:04:01;12.20;;;7.47;;
29370;SDS011;16357;52.188;7.838;2023-04-06T04:06:27;11.43;;;7.43;;
29370;SDS011;16357;52.188;7.838;2023-04-06T04:08:54;9.77;;;7.28;;
29370;SDS011;16357;52.188;7.838;2023-04-06T04:11:20;11.52;;;6.75;;
29370;SDS011;16357;52.188;7.838;2023-04-06T04:13:47;10.35;;;6.60;;
29370;SDS011;16357;52.188;7.838;2023-04-06T04:16:13;9.85;;;6.85;;
29370;SDS011;16357;52.188;7.838;2023-04-06T04:18:40;9.07;;;6.60;;
29370;SDS011;16357;52.188;7.838;2023-04-06T04:21:06;8.43;;;6.53;;
29370;SDS011;16357;52.188;7.838;2023-04-06T04:23:33;10.77;;;6.75;;
29370;SDS011;16357;52.188;7.838;2023-04-06T04:26:02;9.60;;;6.88;;
29370;SDS011;16357;52.188;7.838;2023-04-06T04:28:28;9.10;;;6.75;;
29370;SDS011;16357;52.188;7.838;2023-04-06T04:30:55;11.35;;;7.07;;
29370;SDS011;16357;52.188;7.838;2023-04-06T04:33:22;10.23;;;6.75;;
29370;SDS011;16357;52.188;7.838;2023-04-06T04:35:49;8.77;;;6.70;;
29370;SDS011;16357;52.188;7.838;2023-04-06T04:38:15;10.52;;;6.68;;
29370;SDS011;16357;52.188;7.838;2023-04-06T04:40:41;10.43;;;7.18;;
29370;SDS011;16357;52.188;7.838;2023-04-06T04:43:08;8.20;;;6.43;;
29370;SDS011;16357;52.188;7.838;2023-04-06T04:45:34;10.32;;;6.28;;
29370;SDS011;16357;52.188;7.838;2023-04-06T04:48:01;10.35;;;6.95;;
29370;SDS011;16357;52.188;7.838;2023-04-06T04:50:27;12.75;;;7.65;;
29370;SDS011;16357;52.188;7.838;2023-04-06T04:52:54;10.27;;;6.95;;
29370;SDS011;16357;52.188;7.838;2023-04-06T04:55:20;14.88;;;7.18;;
29370;SDS011;16357;52.188;7.838;2023-04-06T04:57:46;11.00;;;6.72;;
29370;SDS011;16357;52.188;7.838;2023-04-06T05:00:13;10.05;;;6.85;;
29370;SDS011;16357;52.188;7.838;2023-04-06T05:02:40;14.55;;;7.47;;
29370;SDS011;16357;52.188;7.838;2023-04-06T05:05:07;10.65;;;7.28;;
29370;SDS011;16357;52.188;7.838;2023-04-06T05:07:34;13.02;;;7.65;;
29370;SDS011;16357;52.188;7.838;2023-04-06T05:10:00;11.77;;;7.13;;
29370;SDS011;16357;52.188;7.838;2023-04-06T05:12:27;11.13;;;6.63;;
29370;SDS011;16357;52.188;7.838;2023-04-06T05:14:54;13.15;;;7.25;;
29370;SDS011;16357;52.188;7.838;2023-04-06T05:17:20;12.55;;;6.80;;
29370;SDS011;16357;52.188;7.838;2023-04-06T05:19:47;10.30;;;7.38;;
29370;SDS011;16357;52.188;7.838;2023-04-06T05:22:13;9.70;;;6.72;;
29370;SDS011;16357;52.188;7.838;2023-04-06T05:24:42;10.38;;;6.40;;
29370;SDS011;16357;52.188;7.838;2023-04-06T05:27:08;10.50;;;6.57;;
29370;SDS011;16357;52.188;7.838;2023-04-06T05:29:35;9.95;;;6.63;;
29370;SDS011;16357;52.188;7.838;2023-04-06T05:32:02;10.57;;;7.13;;
29370;SDS011;16357;52.188;7.838;2023-04-06T05:34:28;10.75;;;7.07;;
29370;SDS011;16357;52.188;7.838;2023-04-06T05:36:55;10.00;;;6.50;;
29370;SDS011;16357;52.188;7.838;2023-04-06T05:39:21;14.70;;;7.05;;
29370;SDS011;16357;52.188;7.838;2023-04-06T05:41:48;9.68;;;6.50;;
29370;SDS011;16357;52.188;7.838;2023-04-06T05:44:15;9.50;;;7.00;;
29370;SDS011;16357;52.188;7.838;2023-04-06T05:46:41;10.63;;;6.78;;
29370;SDS011;16357;52.188;7.838;2023-04-06T05:49:08;9.15;;;6.53;;
29370;SDS011;16357;52.188;7.838;2023-04-06T05:51:35;11.23;;;6.60;;
29370;SDS011;16357;52.188;7.838;2023-04-06T05:54:01;13.68;;;6.93;;
29370;SDS011;16357;52.188;7.838;2023-04-06T05:56:28;9.73;;;6.85;;
29370;SDS011;16357;52.188;7.838;2023-04-06T05:58:56;9.30;;;6.60;;
29370;SDS011;16357;52.188;7.838;2023-04-06T06:01:22;10.55;;;6.80;;
29370;SDS011;16357;52.188;7.838;2023-04-06T06:03:49;9.05;;;6.50;;
29370;SDS011;16357;52.188;7.838;2023-04-06T06:06:15;14.73;;;6.88;;
29370;SDS011;16357;52.188;7.838;2023-04-06T06:08:42;10.88;;;6.82;;
29370;SDS011;16357;52.188;7.838;2023-04-06T06:11:08;8.82;;;6.28;;
29370;SDS011;16357;52.188;7.838;2023-04-06T06:13:35;11.98;;;6.13;;
29370;SDS011;16357;52.188;7.838;2023-04-06T06:16:01;7.90;;;5.97;;
29370;SDS011;16357;52.188;7.838;2023-04-06T06:18:31;9.88;;;6.15;;
29370;SDS011;16357;52.188;7.838;2023-04-06T06:20:58;11.27;;;6.85;;
29370;SDS011;16357;52.188;7.838;2023-04-06T06:23:24;12.45;;;7.40;;
29370;SDS011;16357;52.188;7.838;2023-04-06T06:25:51;11.52;;;6.85;;
29370;SDS011;16357;52.188;7.838;2023-04-06T06:28:17;11.98;;;7.43;;
29370;SDS011;16357;52.188;7.838;2023-04-06T06:30:44;10.93;;;6.70;;
29370;SDS011;16357;52.188;7.838;2023-04-06T06:33:10;10.50;;;6.50;;
29370;SDS011;16357;52.188;7.838;2023-04-06T06:35:37;11.35;;;6.80;;
29370;SDS011;16357;52.188;7.838;2023-04-06T06:38:03;9.90;;;6.63;;
29370;SDS011;16357;52.188;7.838;2023-04-06T06:40:30;16.00;;;6.88;;
29370;SDS011;16357;52.188;7.838;2023-04-06T06:42:57;10.57;;;6.70;;
29370;SDS011;16357;52.188;7.838;2023-04-06T06:45:23;11.43;;;7.38;;
29370;SDS011;16357;52.188;7.838;2023-04-06T06:47:51;9.93;;;6.57;;
29370;SDS011;16357;52.188;7.838;2023-04-06T06:50:20;11.00;;;7.05;;
29370;SDS011;16357;52.188;7.838;2023-04-06T06:52:47;13.32;;;7.28;;
29370;SDS011;16357;52.188;7.838;2023-04-06T06:55:13;9.20;;;6.72;;
29370;SDS011;16357;52.188;7.838;2023-04-06T06:57:41;9.20;;;6.03;;
29370;SDS011;16357;52.188;7.838;2023-04-06T07:00:08;9.48;;;6.65;;
29370;SDS011;16357;52.188;7.838;2023-04-06T07:02:38;10.93;;;6.63;;
29370;SDS011;16357;52.188;7.838;2023-04-06T07:05:05;10.63;;;6.85;;
29370;SDS011;16357;52.188;7.838;2023-04-06T07:07:52;12.48;;;7.43;;
29370;SDS011;16357;52.188;7.838;2023-04-06T07:10:19;10.20;;;7.07;;
29370;SDS011;16357;52.188;7.838;2023-04-06T07:12:46;10.85;;;6.60;;
29370;SDS011;16357;52.188;7.838;2023-04-06T07:15:12;9.90;;;7.57;;
29370;SDS011;16357;52.188;7.838;2023-04-06T07:17:39;10.23;;;7.03;;
29370;SDS011;16357;52.188;7.838;2023-04-06T07:20:07;10.38;;;7.18;;
29370;SDS011;16357;52.188;7.838;2023-04-06T07:22:34;9.23;;;6.93;;
29370;SDS011;16357;52.188;7.838;2023-04-06T07:25:00;10.82;;;7.20;;
29370;SDS011;16357;52.188;7.838;2023-04-06T07:27:27;11.93;;;7.40;;
29370;SDS011;16357;52.188;7.838;2023-04-06T07:29:53;10.10;;;7.20;;
29370;SDS011;16357;52.188;7.838;2023-04-06T07:32:20;12.05;;;6.80;;
29370;SDS011;16357;52.188;7.838;2023-04-06T07:34:46;12.32;;;7.63;;
29370;SDS011;16357;52.188;7.838;2023-04-06T07:37:13;9.77;;;6.85;;
29370;SDS011;16357;52.188;7.838;2023-04-06T07:39:39;9.50;;;6.85;;
29370;SDS011;16357;52.188;7.838;2023-04-06T07:42:06;11.48;;;7.03;;
29370;SDS011;16357;52.188;7.838;2023-04-06T07:44:33;11.93;;;6.93;;
29370;SDS011;16357;52.188;7.838;2023-04-06T07:46:59;11.73;;;7.00;;
29370;SDS011;16357;52.188;7.838;2023-04-06T07:49:26;10.27;;;6.65;;
29370;SDS011;16357;52.188;7.838;2023-04-06T07:51:53;12.90;;;7.20;;
29370;SDS011;16357;52.188;7.838;2023-04-06T07:54:20;10.23;;;6.72;;
29370;SDS011;16357;52.188;7.838;2023-04-06T07:56:46;10.60;;;7.07;;
29370;SDS011;16357;52.188;7.838;2023-04-06T07:59:13;9.73;;;6.63;;
29370;SDS011;16357;52.188;7.838;2023-04-06T08:01:39;21.60;;;7.25;;
29370;SDS011;16357;52.188;7.838;2023-04-06T08:04:06;12.80;;;7.10;;
29370;SDS011;16357;52.188;7.838;2023-04-06T08:06:33;10.15;;;7.32;;
29370;SDS011;16357;52.188;7.838;2023-04-06T08:09:00;10.95;;;6.57;;
29370;SDS011;16357;52.188;7.838;2023-04-06T08:11:26;10.13;;;6.78;;
29370;SDS011;16357;52.188;7.838;2023-04-06T08:13:53;9.55;;;6.45;;
29370;SDS011;16357;52.188;7.838;2023-04-06T08:16:22;9.88;;;6.80;;
29370;SDS011;16357;52.188;7.838;2023-04-06T08:18:48;9.88;;;6.20;;
29370;SDS011;16357;52.188;7.838;2023-04-06T08:21:15;10.98;;;6.40;;
29370;SDS011;16357;52.188;7.838;2023-04-06T08:23:41;9.60;;;6.53;;
29370;SDS011;16357;52.188;7.838;2023-04-06T08:26:08;11.52;;;6.35;;
29370;SDS011;16357;52.188;7.838;2023-04-06T08:28:34;7.78;;;6.07;;
29370;SDS011;16357;52.188;7.838;2023-04-06T08:31:04;8.15;;;6.38;;
29370;SDS011;16357;52.188;7.838;2023-04-06T08:33:32;8.30;;;5.85;;
29370;SDS011;16357;52.188;7.838;2023-04-06T08:36:11;9.15;;;6.43;;
29370;SDS011;16357;52.188;7.838;2023-04-06T08:38:40;9.43;;;6.57;;
29370;SDS011;16357;52.188;7.838;2023-04-06T08:41:09;10.38;;;6.88;;
29370;SDS011;16357;52.188;7.838;2023-04-06T08:43:58;10.88;;;6.75;;
29370;SDS011;16357;52.188;7.838;2023-04-06T08:46:25;10.18;;;6.28;;
29370;SDS011;16357;52.188;7.838;2023-04-06T08:48:59;9.18;;;6.35;;
29370;SDS011;16357;52.188;7.838;2023-04-06T08:51:28;9.63;;;6.70;;
29370;SDS011;16357;52.188;7.838;2023-04-06T08:53:57;12.25;;;6.78;;
29370;SDS011;16357;52.188;7.838;2023-04-06T08:56:27;10.07;;;6.53;;
29370;SDS011;16357;52.188;7.838;2023-04-06T08:58:54;12.10;;;6.32;;
29370;SDS011;16357;52.188;7.838;2023-04-06T09:01:26;9.00;;;6.78;;
29370;SDS011;16357;52.188;7.838;2023-04-06T09:03:57;13.60;;;7.25;;
29370;SDS011;16357;52.188;7.838;2023-04-06T09:06:27;10.48;;;7.00;;
29370;SDS011;16357;52.188;7.838;2023-04-06T09:08:53;10.25;;;7.78;;
29370;SDS011;16357;52.188;7.838;2023-04-06T09:11:20;10.52;;;7.43;;
29370;SDS011;16357;52.188;7.838;2023-04-06T09:13:48;10.55;;;7.38;;
29370;SDS011;16357;52.188;7.838;2023-04-06T09:16:16;11.02;;;7.50;;
29370;SDS011;16357;52.188;7.838;2023-04-06T09:18:44;13.52;;;7.93;;
29370;SDS011;16357;52.188;7.838;2023-04-06T09:21:11;9.05;;;6.97;;
29370;SDS011;16357;52.188;7.838;2023-04-06T09:23:38;9.32;;;7.15;;
29370;SDS011;16357;52.188;7.838;2023-04-06T09:28:41;10.95;;;7.68;;
29370;SDS011;16357;52.188;7.838;2023-04-06T09:31:09;11.50;;;7.28;;
29370;SDS011;16357;52.188;7.838;2023-04-06T09:33:40;10.73;;;7.65;;
29370;SDS011;16357;52.188;7.838;2023-04-06T09:36:07;13.57;;;7.53;;
29370;SDS011;16357;52.188;7.838;2023-04-06T09:38:51;10.18;;;7.55;;
29370;SDS011;16357;52.188;7.838;2023-04-06T09:41:22;12.68;;;8.13;;
29370;SDS011;16357;52.188;7.838;2023-04-06T09:46:40;12.02;;;8.40;;
29370;SDS011;16357;52.188;7.838;2023-04-06T09:49:28;11.60;;;7.80;;
29370;SDS011;16357;52.188;7.838;2023-04-06T09:51:58;13.82;;;8.95;;
29370;SDS011;16357;52.188;7.838;2023-04-06T09:54:28;13.27;;;8.13;;
29370;SDS011;16357;52.188;7.838;2023-04-06T09:57:00;13.65;;;8.63;;
29370;SDS011;16357;52.188;7.838;2023-04-06T10:02:05;11.93;;;8.45;;
29370;SDS011;16357;52.188;7.838;2023-04-06T10:04:43;11.75;;;8.18;;
29370;SDS011;16357;52.188;7.838;2023-04-06T10:07:21;13.18;;;8.75;;
29370;SDS011;16357;52.188;7.838;2023-04-06T10:09:48;11.98;;;9.50;;
29370;SDS011;16357;52.188;7.838;2023-04-06T10:12:16;12.98;;;9.02;;
29370;SDS011;16357;52.188;7.838;2023-04-06T10:14:43;16.95;;;9.40;;
29370;SDS011;16357;52.188;7.838;2023-04-06T10:17:11;12.75;;;9.35;;
29370;SDS011;16357;52.188;7.838;2023-04-06T10:19:49;10.88;;;8.82;;
29370;SDS011;16357;52.188;7.838;2023-04-06T10:22:28;13.15;;;9.13;;
29370;SDS011;16357;52.188;7.838;2023-04-06T10:25:00;13.75;;;9.65;;
29370;SDS011;16357;52.188;7.838;2023-04-06T10:27:27;13.30;;;9.52;;
29370;SDS011;16357;52.188;7.838;2023-04-06T10:30:00;13.88;;;9.50;;
29370;SDS011;16357;52.188;7.838;2023-04-06T10:32:38;16.30;;;10.30;;
29370;SDS011;16357;52.188;7.838;2023-04-06T10:35:05;12.48;;;9.48;;
29370;SDS011;16357;52.188;7.838;2023-04-06T10:37:46;16.35;;;10.40;;
29370;SDS011;16357;52.188;7.838;2023-04-06T10:40:37;15.10;;;9.85;;
29370;SDS011;16357;52.188;7.838;2023-04-06T10:43:11;20.83;;;10.88;;
29370;SDS011;16357;52.188;7.838;2023-04-06T10:45:40;12.45;;;9.98;;
29370;SDS011;16357;52.188;7.838;2023-04-06T10:48:16;13.35;;;9.93;;
29370;SDS011;16357;52.188;7.838;2023-04-06T10:50:44;14.55;;;10.05;;
29370;SDS011;16357;52.188;7.838;2023-04-06T10:53:20;13.65;;;10.07;;
29370;SDS011;16357;52.188;7.838;2023-04-06T10:55:52;14.63;;;9.98;;
29370;SDS011;16357;52.188;7.838;2023-04-06T10:58:24;15.15;;;10.77;;
29370;SDS011;16357;52.188;7.838;2023-04-06T11:00:51;17.02;;;11.07;;
29370;SDS011;16357;52.188;7.838;2023-04-06T11:03:19;14.02;;;10.60;;
29370;SDS011;16357;52.188;7.838;2023-04-06T11:05:46;16.02;;;11.27;;
29370;SDS011;16357;52.188;7.838;2023-04-06T11:08:22;14.93;;;10.88;;
29370;SDS011;16357;52.188;7.838;2023-04-06T11:11:03;15.05;;;10.35;;
29370;SDS011;16357;52.188;7.838;2023-04-06T11:13:40;13.80;;;10.32;;
29370;SDS011;16357;52.188;7.838;2023-04-06T11:16:14;13.07;;;9.65;;
29370;SDS011;16357;52.188;7.838;2023-04-06T11:18:46;14.40;;;10.17;;
29370;SDS011;16357;52.188;7.838;2023-04-06T11:21:13;14.98;;;10.77;;
29370;SDS011;16357;52.188;7.838;2023-04-06T11:23:39;14.68;;;10.50;;
29370;SDS011;16357;52.188;7.838;2023-04-06T11:26:09;13.85;;;9.77;;
29370;SDS011;16357;52.188;7.838;2023-04-06T11:28:43;14.77;;;10.32;;
29370;SDS011;16357;52.188;7.838;2023-04-06T11:31:10;12.73;;;9.23;;
29370;SDS011;16357;52.188;7.838;2023-04-06T11:33:37;13.90;;;9.60;;
29370;SDS011;16357;52.188;7.838;2023-04-06T11:36:05;13.48;;;10.25;;
29370;SDS011;16357;52.188;7.838;2023-04-06T11:38:32;13.63;;;10.10;;
29370;SDS011;16357;52.188;7.838;2023-04-06T11:41:00;18.92;;;10.30;;
29370;SDS011;16357;52.188;7.838;2023-04-06T11:43:28;15.38;;;10.45;;
29370;SDS011;16357;52.188;7.838;2023-04-06T11:46:02;19.83;;;11.65;;
29370;SDS011;16357;52.188;7.838;2023-04-06T11:48:30;15.05;;;10.07;;
29370;SDS011;16357;52.188;7.838;2023-04-06T11:50:58;13.73;;;10.10;;
29370;SDS011;16357;52.188;7.838;2023-04-06T11:53:27;13.25;;;9.68;;
29370;SDS011;16357;52.188;7.838;2023-04-06T11:55:55;14.05;;;9.43;;
29370;SDS011;16357;52.188;7.838;2023-04-06T11:58:22;15.02;;;10.50;;
29370;SDS011;16357;52.188;7.838;2023-04-06T12:00:49;13.73;;;10.02;;
29370;SDS011;16357;52.188;7.838;2023-04-06T12:03:15;16.63;;;10.32;;
29370;SDS011;16357;52.188;7.838;2023-04-06T12:05:42;12.68;;;10.07;;
29370;SDS011;16357;52.188;7.838;2023-04-06T12:08:09;12.95;;;9.82;;
29370;SDS011;16357;52.188;7.838;2023-04-06T12:10:37;14.90;;;10.02;;
29370;SDS011;16357;52.188;7.838;2023-04-06T12:13:03;16.77;;;10.50;;
29370;SDS011;16357;52.188;7.838;2023-04-06T12:15:30;14.30;;;10.60;;
29370;SDS011;16357;52.188;7.838;2023-04-06T12:17:57;17.40;;;11.40;;
29370;SDS011;16357;52.188;7.838;2023-04-06T12:20:23;14.52;;;10.38;;
29370;SDS011;16357;52.188;7.838;2023-04-06T12:22:52;15.55;;;10.70;;
29370;SDS011;16357;52.188;7.838;2023-04-06T12:25:19;15.55;;;10.35;;
29370;SDS011;16357;52.188;7.838;2023-04-06T12:27:46;17.48;;;10.88;;
29370;SDS011;16357;52.188;7.838;2023-04-06T12:30:13;14.60;;;10.98;;
29370;SDS011;16357;52.188;7.838;2023-04-06T12:32:40;14.65;;;10.93;;
29370;SDS011;16357;52.188;7.838;2023-04-06T12:35:06;13.98;;;10.32;;
29370;SDS011;16357;52.188;7.838;2023-04-06T12:37:35;16.80;;;11.57;;
29370;SDS011;16357;52.188;7.838;2023-04-06T12:40:01;17.05;;;11.90;;
29370;SDS011;16357;52.188;7.838;2023-04-06T12:42:29;16.40;;;11.43;;
29370;SDS011;16357;52.188;7.838;2023-04-06T12:44:55;14.63;;;11.00;;
29370;SDS011;16357;52.188;7.838;2023-04-06T12:47:22;14.80;;;11.05;;
29370;SDS011;16357;52.188;7.838;2023-04-06T12:49:48;14.68;;;10.95;;
29370;SDS011;16357;52.188;7.838;2023-04-06T12:52:16;14.10;;;10.77;;
29370;SDS011;16357;52.188;7.838;2023-04-06T12:54:42;14.57;;;10.23;;
29370;SDS011;16357;52.188;7.838;2023-04-06T12:57:09;12.48;;;9.77;;
29370;SDS011;16357;52.188;7.838;2023-04-06T12:59:36;15.90;;;11.05;;
29370;SDS011;16357;52.188;7.838;2023-04-06T13:02:04;16.55;;;11.30;;
29370;SDS011;16357;52.188;7.838;2023-04-06T13:04:32;15.73;;;12.07;;
29370;SDS011;16357;52.188;7.838;2023-04-06T13:06:58;17.63;;;11.18;;
29370;SDS011;16357;52.188;7.838;2023-04-06T13:09:24;17.08;;;12.00;;
29370;SDS011;16357;52.188;7.838;2023-04-06T13:11:51;15.82;;;11.05;;
29370;SDS011;16357;52.188;7.838;2023-04-06T13:14:18;16.00;;;11.32;;
29370;SDS011;16357;52.188;7.838;2023-04-06T13:16:44;20.25;;;11.30;;
29370;SDS011;16357;52.188;7.838;2023-04-06T13:19:11;15.68;;;10.30;;
29370;SDS011;16357;52.188;7.838;2023-04-06T13:21:38;16.55;;;11.30;;
29370;SDS011;16357;52.188;7.838;2023-04-06T13:24:05;16.27;;;11.43;;
29370;SDS011;16357;52.188;7.838;2023-04-06T13:26:32;15.52;;;10.40;;
29370;SDS011;16357;52.188;7.838;2023-04-06T13:28:59;15.32;;;11.20;;
29370;SDS011;16357;52.188;7.838;2023-04-06T13:31:26;14.85;;;10.38;;
29370;SDS011;16357;52.188;7.838;2023-04-06T13:33:53;14.30;;;10.57;;
29370;SDS011;16357;52.188;7.838;2023-04-06T13:36:20;14.85;;;10.10;;
29370;SDS011;16357;52.188;7.838;2023-04-06T13:38:47;16.13;;;10.73;;
29370;SDS011;16357;52.188;7.838;2023-04-06T13:41:17;14.13;;;10.45;;
29370;SDS011;16357;52.188;7.838;2023-04-06T13:43:48;14.20;;;10.73;;
29370;SDS011;16357;52.188;7.838;2023-04-06T13:46:14;15.68;;;11.05;;
29370;SDS011;16357;52.188;7.838;2023-04-06T13:48:41;14.82;;;10.45;;
29370;SDS011;16357;52.188;7.838;2023-04-06T13:51:09;13.82;;;9.98;;
29370;SDS011;16357;52.188;7.838;2023-04-06T13:53:36;12.85;;;9.38;;
29370;SDS011;16357;52.188;7.838;2023-04-06T13:56:06;13.45;;;9.77;;
29370;SDS011;16357;52.188;7.838;2023-04-06T13:58:33;13.68;;;10.00;;
29370;SDS011;16357;52.188;7.838;2023-04-06T14:01:05;13.95;;;9.65;;
29370;SDS011;16357;52.188;7.838;2023-04-06T14:03:37;13.38;;;9.57;;
29370;SDS011;16357;52.188;7.838;2023-04-06T14:06:13;13.90;;;9.13;;
29370;SDS011;16357;52.188;7.838;2023-04-06T14:08:56;13.93;;;10.40;;
29370;SDS011;16357;52.188;7.838;2023-04-06T14:11:23;16.63;;;10.75;;
29370;SDS011;16357;52.188;7.838;2023-04-06T14:13:49;19.88;;;10.98;;
29370;SDS011;16357;52.188;7.838;2023-04-06T14:16:16;18.58;;;10.82;;
29370;SDS011;16357;52.188;7.838;2023-04-06T14:18:45;16.20;;;11.27;;
29370;SDS011;16357;52.188;7.838;2023-04-06T14:21:12;15.20;;;10.25;;
29370;SDS011;16357;52.188;7.838;2023-04-06T14:23:38;18.38;;;11.45;;
29370;SDS011;16357;52.188;7.838;2023-04-06T14:26:05;14.35;;;10.45;;
29370;SDS011;16357;52.188;7.838;2023-04-06T14:28:33;16.02;;;10.52;;
29370;SDS011;16357;52.188;7.838;2023-04-06T14:31:09;14.18;;;10.45;;
29370;SDS011;16357;52.188;7.838;2023-04-06T14:33:38;16.63;;;10.90;;
29370;SDS011;16357;52.188;7.838;2023-04-06T14:36:05;19.95;;;11.90;;
29370;SDS011;16357;52.188;7.838;2023-04-06T14:38:32;37.95;;;11.32;;
29370;SDS011;16357;52.188;7.838;2023-04-06T14:40:58;14.70;;;10.60;;
29370;SDS011;16357;52.188;7.838;2023-04-06T14:43:25;16.88;;;10.93;;
29370;SDS011;16357;52.188;7.838;2023-04-06T14:45:52;19.08;;;11.27;;
29370;SDS011;16357;52.188;7.838;2023-04-06T14:48:19;17.23;;;11.27;;